sensor_id;sensor_type;location;lat;lon;timestamp;temperature;humidity
20231;DHT22;10274;49.022;9.338;2022-07-12T00:02:19;17.40;99.90
20231;DHT22;10274;49.022;9.338;2022-07-12T00:04:46;17.40;99.90
20231;DHT22;10274;49.022;9.338;2022-07-12T00:07:14;17.40;99.90
20231;DHT22;10274;49.022;9.338;2022-07-12T00:09:41;17.40;99.90
20231;DHT22;10274;49.022;9.338;2022-07-12T00:12:09;17.50;99.90
20231;DHT22;10274;49.022;9.338;2022-07-12T00:14:36;17.50;99.90
20231;DHT22;10274;49.022;9.338;2022-07-12T00:17:03;17.50;99.90
20231;DHT22;10274;49.022;9.338;2022-07-12T00:19:30;17.50;99.90
20231;DHT22;10274;49.022;9.338;2022-07-12T00:21:58;17.50;99.90
20231;DHT22;10274;49.022;9.338;2022-07-12T00:24:26;17.60;99.90
20231;DHT22;10274;49.022;9.338;2022-07-12T00:26:52;17.50;99.90
20231;DHT22;10274;49.022;9.338;2022-07-12T00:29:19;17.50;99.90
20231;DHT22;10274;49.022;9.338;2022-07-12T00:31:46;17.50;99.90
20231;DHT22;10274;49.022;9.338;2022-07-12T00:34:13;17.40;99.90
20231;DHT22;10274;49.022;9.338;2022-07-12T00:36:40;17.40;99.90
20231;DHT22;10274;49.022;9.338;2022-07-12T00:39:07;17.40;99.90
20231;DHT22;10274;49.022;9.338;2022-07-12T00:41:35;17.30;99.90
20231;DHT22;10274;49.022;9.338;2022-07-12T00:44:01;17.20;99.90
20231;DHT22;10274;49.022;9.338;2022-07-12T00:46:28;17.30;99.90
20231;DHT22;10274;49.022;9.338;2022-07-12T00:48:55;17.30;99.90
20231;DHT22;10274;49.022;9.338;2022-07-12T00:51:22;17.20;99.90
20231;DHT22;10274;49.022;9.338;2022-07-12T00:53:51;17.00;99.90
20231;DHT22;10274;49.022;9.338;2022-07-12T00:56:19;16.90;99.90
20231;DHT22;10274;49.022;9.338;2022-07-12T00:58:47;16.80;99.90
20231;DHT22;10274;49.022;9.338;2022-07-12T01:01:13;16.80;99.90
20231;DHT22;10274;49.022;9.338;2022-07-12T01:03:41;16.60;99.90
20231;DHT22;10274;49.022;9.338;2022-07-12T01:06:08;16.70;99.90
20231;DHT22;10274;49.022;9.338;2022-07-12T01:08:35;16.50;99.90
20231;DHT22;10274;49.022;9.338;2022-07-12T01:11:03;16.40;99.90
20231;DHT22;10274;49.022;9.338;2022-07-12T01:13:30;16.20;99.90
20231;DHT22;10274;49.022;9.338;2022-07-12T01:15:58;16.20;99.90
20231;DHT22;10274;49.022;9.338;2022-07-12T01:18:25;16.10;99.90
20231;DHT22;10274;49.022;9.338;2022-07-12T01:20:53;16.10;99.90
20231;DHT22;10274;49.022;9.338;2022-07-12T01:23:22;16.00;99.90
20231;DHT22;10274;49.022;9.338;2022-07-12T01:25:49;16.00;99.90
20231;DHT22;10274;49.022;9.338;2022-07-12T01:28:16;15.90;99.90
20231;DHT22;10274;49.022;9.338;2022-07-12T01:30:43;15.60;99.90
20231;DHT22;10274;49.022;9.338;2022-07-12T01:33:09;15.30;99.90
20231;DHT22;10274;49.022;9.338;2022-07-12T01:35:36;15.20;99.90
20231;DHT22;10274;49.022;9.338;2022-07-12T01:38:03;15.20;99.90
20231;DHT22;10274;49.022;9.338;2022-07-12T01:40:31;15.20;99.90
20231;DHT22;10274;49.022;9.338;2022-07-12T01:42:58;15.30;99.90
20231;DHT22;10274;49.022;9.338;2022-07-12T01:45:26;15.10;99.90
20231;DHT22;10274;49.022;9.338;2022-07-12T01:47:53;15.10;99.90
20231;DHT22;10274;49.022;9.338;2022-07-12T01:50:19;15.10;99.90
20231;DHT22;10274;49.022;9.338;2022-07-12T01:52:46;15.00;99.90
20231;DHT22;10274;49.022;9.338;2022-07-12T01:55:13;15.00;99.90
20231;DHT22;10274;49.022;9.338;2022-07-12T01:57:42;15.10;99.90
20231;DHT22;10274;49.022;9.338;2022-07-12T02:00:11;15.00;99.90
20231;DHT22;10274;49.022;9.338;2022-07-12T02:02:38;15.00;99.90
20231;DHT22;10274;49.022;9.338;2022-07-12T02:05:05;15.00;99.90
20231;DHT22;10274;49.022;9.338;2022-07-12T02:07:32;15.00;99.90
20231;DHT22;10274;49.022;9.338;2022-07-12T02:09:59;15.00;99.90
20231;DHT22;10274;49.022;9.338;2022-07-12T02:12:26;14.80;99.90
20231;DHT22;10274;49.022;9.338;2022-07-12T02:14:54;14.60;99.90
20231;DHT22;10274;49.022;9.338;2022-07-12T02:17:20;14.50;99.90
20231;DHT22;10274;49.022;9.338;2022-07-12T02:19:47;14.40;99.90
20231;DHT22;10274;49.022;9.338;2022-07-12T02:22:14;14.40;99.90
20231;DHT22;10274;49.022;9.338;2022-07-12T02:24:40;14.40;99.90
20231;DHT22;10274;49.022;9.338;2022-07-12T02:27:07;14.40;99.90
20231;DHT22;10274;49.022;9.338;2022-07-12T02:29:34;14.60;99.90
20231;DHT22;10274;49.022;9.338;2022-07-12T02:32:03;14.00;99.90
20231;DHT22;10274;49.022;9.338;2022-07-12T02:34:30;13.90;99.90
20231;DHT22;10274;49.022;9.338;2022-07-12T02:36:57;14.00;99.90
20231;DHT22;10274;49.022;9.338;2022-07-12T02:39:24;14.10;99.90
20231;DHT22;10274;49.022;9.338;2022-07-12T02:41:50;14.10;99.90
20231;DHT22;10274;49.022;9.338;2022-07-12T02:44:17;14.10;99.90
20231;DHT22;10274;49.022;9.338;2022-07-12T02:46:44;14.00;99.90
20231;DHT22;10274;49.022;9.338;2022-07-12T02:49:13;14.00;99.90
20231;DHT22;10274;49.022;9.338;2022-07-12T02:51:39;13.90;99.90
20231;DHT22;10274;49.022;9.338;2022-07-12T02:54:06;13.90;99.90
20231;DHT22;10274;49.022;9.338;2022-07-12T02:56:33;13.80;99.90
20231;DHT22;10274;49.022;9.338;2022-07-12T02:58:59;13.80;99.90
20231;DHT22;10274;49.022;9.338;2022-07-12T03:01:26;13.70;99.90
20231;DHT22;10274;49.022;9.338;2022-07-12T03:03:53;13.40;99.90
20231;DHT22;10274;49.022;9.338;2022-07-12T03:06:21;13.00;99.90
20231;DHT22;10274;49.022;9.338;2022-07-12T03:08:47;13.10;99.90
20231;DHT22;10274;49.022;9.338;2022-07-12T03:11:14;13.20;99.90
20231;DHT22;10274;49.022;9.338;2022-07-12T03:13:41;13.20;99.90
20231;DHT22;10274;49.022;9.338;2022-07-12T03:16:07;13.20;99.90
20231;DHT22;10274;49.022;9.338;2022-07-12T03:18:34;13.20;99.90
20231;DHT22;10274;49.022;9.338;2022-07-12T03:21:01;13.20;99.90
20231;DHT22;10274;49.022;9.338;2022-07-12T03:23:29;13.20;99.90
20231;DHT22;10274;49.022;9.338;2022-07-12T03:25:55;13.20;99.90
20231;DHT22;10274;49.022;9.338;2022-07-12T03:28:23;13.20;99.90
20231;DHT22;10274;49.022;9.338;2022-07-12T03:30:51;13.10;99.90
20231;DHT22;10274;49.022;9.338;2022-07-12T03:33:18;13.20;99.90
20231;DHT22;10274;49.022;9.338;2022-07-12T03:35:44;13.10;99.90
20231;DHT22;10274;49.022;9.338;2022-07-12T03:38:11;12.90;99.90
20231;DHT22;10274;49.022;9.338;2022-07-12T03:40:39;12.80;99.90
20231;DHT22;10274;49.022;9.338;2022-07-12T03:43:05;12.80;99.90
20231;DHT22;10274;49.022;9.338;2022-07-12T03:45:32;12.70;99.90
20231;DHT22;10274;49.022;9.338;2022-07-12T03:48:00;12.80;99.90
20231;DHT22;10274;49.022;9.338;2022-07-12T03:50:26;12.80;99.90
20231;DHT22;10274;49.022;9.338;2022-07-12T03:52:53;12.80;99.90
20231;DHT22;10274;49.022;9.338;2022-07-12T03:55:20;12.90;99.90
20231;DHT22;10274;49.022;9.338;2022-07-12T03:57:49;12.90;99.90
20231;DHT22;10274;49.022;9.338;2022-07-12T04:00:16;13.00;99.90
20231;DHT22;10274;49.022;9.338;2022-07-12T04:02:43;13.00;99.90
20231;DHT22;10274;49.022;9.338;2022-07-12T04:05:11;12.90;99.90
20231;DHT22;10274;49.022;9.338;2022-07-12T04:07:38;12.70;99.90
20231;DHT22;10274;49.022;9.338;2022-07-12T04:10:06;12.40;99.90
20231;DHT22;10274;49.022;9.338;2022-07-12T04:12:33;12.30;99.90
20231;DHT22;10274;49.022;9.338;2022-07-12T04:15:02;12.40;99.90
20231;DHT22;10274;49.022;9.338;2022-07-12T04:17:28;12.50;99.90
20231;DHT22;10274;49.022;9.338;2022-07-12T04:19:55;12.40;99.90
20231;DHT22;10274;49.022;9.338;2022-07-12T04:22:22;12.30;99.90
20231;DHT22;10274;49.022;9.338;2022-07-12T04:24:49;12.30;99.90
20231;DHT22;10274;49.022;9.338;2022-07-12T04:27:16;12.40;99.90
20231;DHT22;10274;49.022;9.338;2022-07-12T04:29:42;12.50;99.90
20231;DHT22;10274;49.022;9.338;2022-07-12T04:32:10;12.70;99.90
20231;DHT22;10274;49.022;9.338;2022-07-12T04:34:37;12.80;99.90
20231;DHT22;10274;49.022;9.338;2022-07-12T04:37:04;13.00;99.90
20231;DHT22;10274;49.022;9.338;2022-07-12T04:39:30;13.20;99.90
20231;DHT22;10274;49.022;9.338;2022-07-12T04:41:57;13.30;99.90
20231;DHT22;10274;49.022;9.338;2022-07-12T04:44:24;13.40;99.90
20231;DHT22;10274;49.022;9.338;2022-07-12T04:46:51;13.60;99.90
20231;DHT22;10274;49.022;9.338;2022-07-12T04:49:19;13.50;99.90
20231;DHT22;10274;49.022;9.338;2022-07-12T04:51:45;13.40;99.90
20231;DHT22;10274;49.022;9.338;2022-07-12T04:54:12;13.40;99.90
20231;DHT22;10274;49.022;9.338;2022-07-12T04:56:39;13.40;99.90
20231;DHT22;10274;49.022;9.338;2022-07-12T04:59:05;13.30;99.90
20231;DHT22;10274;49.022;9.338;2022-07-12T05:01:32;13.40;99.90
20231;DHT22;10274;49.022;9.338;2022-07-12T05:03:59;13.50;99.90
20231;DHT22;10274;49.022;9.338;2022-07-12T05:06:27;13.60;99.90
20231;DHT22;10274;49.022;9.338;2022-07-12T05:08:54;13.80;99.90
20231;DHT22;10274;49.022;9.338;2022-07-12T05:11:20;13.90;99.90
20231;DHT22;10274;49.022;9.338;2022-07-12T05:13:47;13.80;99.90
20231;DHT22;10274;49.022;9.338;2022-07-12T05:16:14;13.90;99.90
20231;DHT22;10274;49.022;9.338;2022-07-12T05:18:41;14.10;99.90
20231;DHT22;10274;49.022;9.338;2022-07-12T05:21:07;14.10;99.90
20231;DHT22;10274;49.022;9.338;2022-07-12T05:23:35;14.20;99.90
20231;DHT22;10274;49.022;9.338;2022-07-12T05:26:02;14.30;99.90
20231;DHT22;10274;49.022;9.338;2022-07-12T05:28:29;14.50;99.90
20231;DHT22;10274;49.022;9.338;2022-07-12T05:30:55;14.60;99.90
20231;DHT22;10274;49.022;9.338;2022-07-12T05:33:22;14.80;99.90
20231;DHT22;10274;49.022;9.338;2022-07-12T05:35:49;15.00;99.90
20231;DHT22;10274;49.022;9.338;2022-07-12T05:38:16;15.20;99.90
20231;DHT22;10274;49.022;9.338;2022-07-12T05:40:44;15.30;99.90
20231;DHT22;10274;49.022;9.338;2022-07-12T05:43:11;15.50;99.90
20231;DHT22;10274;49.022;9.338;2022-07-12T05:45:38;15.60;99.90
20231;DHT22;10274;49.022;9.338;2022-07-12T05:48:05;15.70;99.90
20231;DHT22;10274;49.022;9.338;2022-07-12T05:50:31;15.90;99.90
20231;DHT22;10274;49.022;9.338;2022-07-12T05:52:58;16.10;99.90
20231;DHT22;10274;49.022;9.338;2022-07-12T05:55:42;16.30;99.90
20231;DHT22;10274;49.022;9.338;2022-07-12T05:58:11;16.50;99.90
20231;DHT22;10274;49.022;9.338;2022-07-12T06:00:38;16.70;99.90
20231;DHT22;10274;49.022;9.338;2022-07-12T06:03:04;16.60;99.90
20231;DHT22;10274;49.022;9.338;2022-07-12T06:05:32;16.80;99.90
20231;DHT22;10274;49.022;9.338;2022-07-12T06:07:58;17.00;99.90
20231;DHT22;10274;49.022;9.338;2022-07-12T06:10:25;17.20;99.90
20231;DHT22;10274;49.022;9.338;2022-07-12T06:12:51;17.20;99.90
20231;DHT22;10274;49.022;9.338;2022-07-12T06:15:20;17.30;99.90
20231;DHT22;10274;49.022;9.338;2022-07-12T06:17:46;17.50;99.90
20231;DHT22;10274;49.022;9.338;2022-07-12T06:20:14;17.70;99.90
20231;DHT22;10274;49.022;9.338;2022-07-12T06:22:41;17.80;99.90
20231;DHT22;10274;49.022;9.338;2022-07-12T06:25:08;17.90;99.90
20231;DHT22;10274;49.022;9.338;2022-07-12T06:27:35;18.10;99.90
20231;DHT22;10274;49.022;9.338;2022-07-12T06:30:02;18.20;99.90
20231;DHT22;10274;49.022;9.338;2022-07-12T06:32:30;18.30;99.90
20231;DHT22;10274;49.022;9.338;2022-07-12T06:34:56;18.60;99.90
20231;DHT22;10274;49.022;9.338;2022-07-12T06:37:23;18.70;99.90
20231;DHT22;10274;49.022;9.338;2022-07-12T06:39:50;18.90;99.90
20231;DHT22;10274;49.022;9.338;2022-07-12T06:42:16;19.00;99.90
20231;DHT22;10274;49.022;9.338;2022-07-12T06:44:43;19.00;99.90
20231;DHT22;10274;49.022;9.338;2022-07-12T06:47:10;19.10;99.90
20231;DHT22;10274;49.022;9.338;2022-07-12T06:49:38;19.30;99.90
20231;DHT22;10274;49.022;9.338;2022-07-12T06:52:05;19.40;99.90
20231;DHT22;10274;49.022;9.338;2022-07-12T06:54:32;19.50;99.90
20231;DHT22;10274;49.022;9.338;2022-07-12T06:56:59;19.60;99.90
20231;DHT22;10274;49.022;9.338;2022-07-12T06:59:25;19.70;99.90
20231;DHT22;10274;49.022;9.338;2022-07-12T07:01:52;19.90;99.90
20231;DHT22;10274;49.022;9.338;2022-07-12T07:04:21;19.90;99.90
20231;DHT22;10274;49.022;9.338;2022-07-12T07:06:49;20.00;99.90
20231;DHT22;10274;49.022;9.338;2022-07-12T07:09:16;20.00;99.90
20231;DHT22;10274;49.022;9.338;2022-07-12T07:11:43;20.20;99.90
20231;DHT22;10274;49.022;9.338;2022-07-12T07:14:10;20.40;99.90
20231;DHT22;10274;49.022;9.338;2022-07-12T07:16:36;20.60;99.90
20231;DHT22;10274;49.022;9.338;2022-07-12T07:19:03;20.90;99.90
20231;DHT22;10274;49.022;9.338;2022-07-12T07:21:31;20.80;99.90
20231;DHT22;10274;49.022;9.338;2022-07-12T07:23:59;20.90;99.90
20231;DHT22;10274;49.022;9.338;2022-07-12T07:26:26;21.20;99.90
20231;DHT22;10274;49.022;9.338;2022-07-12T07:28:52;21.20;99.90
20231;DHT22;10274;49.022;9.338;2022-07-12T07:31:37;21.20;99.90
20231;DHT22;10274;49.022;9.338;2022-07-12T07:34:04;21.40;99.90
20231;DHT22;10274;49.022;9.338;2022-07-12T07:36:31;21.60;99.90
20231;DHT22;10274;49.022;9.338;2022-07-12T07:38:59;21.70;99.90
20231;DHT22;10274;49.022;9.338;2022-07-12T07:41:26;21.70;99.90
20231;DHT22;10274;49.022;9.338;2022-07-12T07:43:53;21.60;99.90
20231;DHT22;10274;49.022;9.338;2022-07-12T07:46:20;21.60;99.90
20231;DHT22;10274;49.022;9.338;2022-07-12T07:48:46;21.60;99.90
20231;DHT22;10274;49.022;9.338;2022-07-12T07:51:13;21.50;99.90
20231;DHT22;10274;49.022;9.338;2022-07-12T07:53:40;21.80;99.90
20231;DHT22;10274;49.022;9.338;2022-07-12T07:56:08;21.70;99.90
20231;DHT22;10274;49.022;9.338;2022-07-12T07:58:34;22.20;99.90
20231;DHT22;10274;49.022;9.338;2022-07-12T08:01:01;22.50;99.90
20231;DHT22;10274;49.022;9.338;2022-07-12T08:03:28;22.70;99.90
20231;DHT22;10274;49.022;9.338;2022-07-12T08:05:54;22.90;99.90
20231;DHT22;10274;49.022;9.338;2022-07-12T08:08:23;23.70;99.90
20231;DHT22;10274;49.022;9.338;2022-07-12T08:10:56;25.00;99.90
20231;DHT22;10274;49.022;9.338;2022-07-12T08:15:53;24.10;99.90
20231;DHT22;10274;49.022;9.338;2022-07-12T08:18:19;25.20;99.90
20231;DHT22;10274;49.022;9.338;2022-07-12T08:20:46;26.30;99.90
20231;DHT22;10274;49.022;9.338;2022-07-12T08:23:13;26.80;99.90
20231;DHT22;10274;49.022;9.338;2022-07-12T08:25:40;25.90;99.90
20231;DHT22;10274;49.022;9.338;2022-07-12T08:28:07;24.00;99.90
20231;DHT22;10274;49.022;9.338;2022-07-12T08:30:33;25.80;99.90
20231;DHT22;10274;49.022;9.338;2022-07-12T08:33:01;26.90;99.90
20231;DHT22;10274;49.022;9.338;2022-07-12T08:35:28;27.10;99.90
20231;DHT22;10274;49.022;9.338;2022-07-12T08:37:55;27.30;99.90
20231;DHT22;10274;49.022;9.338;2022-07-12T08:40:21;27.40;99.90
20231;DHT22;10274;49.022;9.338;2022-07-12T08:42:48;26.60;99.90
20231;DHT22;10274;49.022;9.338;2022-07-12T08:45:15;25.10;99.90
20231;DHT22;10274;49.022;9.338;2022-07-12T08:47:42;24.30;99.90
20231;DHT22;10274;49.022;9.338;2022-07-12T08:50:14;23.70;99.90
20231;DHT22;10274;49.022;9.338;2022-07-12T08:52:43;23.40;99.90
20231;DHT22;10274;49.022;9.338;2022-07-12T08:55:22;23.70;99.90
20231;DHT22;10274;49.022;9.338;2022-07-12T08:57:51;23.40;99.90
20231;DHT22;10274;49.022;9.338;2022-07-12T09:00:18;23.20;99.90
20231;DHT22;10274;49.022;9.338;2022-07-12T09:02:49;23.30;99.90
20231;DHT22;10274;49.022;9.338;2022-07-12T09:05:21;24.50;99.90
20231;DHT22;10274;49.022;9.338;2022-07-12T09:07:48;25.70;99.90
20231;DHT22;10274;49.022;9.338;2022-07-12T09:10:15;24.40;99.90
20231;DHT22;10274;49.022;9.338;2022-07-12T09:12:43;23.50;99.90
20231;DHT22;10274;49.022;9.338;2022-07-12T09:15:16;23.10;99.90
20231;DHT22;10274;49.022;9.338;2022-07-12T09:17:54;23.20;99.90
20231;DHT22;10274;49.022;9.338;2022-07-12T09:20:23;23.30;99.90
20231;DHT22;10274;49.022;9.338;2022-07-12T09:22:52;23.60;99.90
20231;DHT22;10274;49.022;9.338;2022-07-12T09:25:20;25.40;99.90
20231;DHT22;10274;49.022;9.338;2022-07-12T09:27:48;26.40;99.90
20231;DHT22;10274;49.022;9.338;2022-07-12T09:30:15;27.10;99.90
20231;DHT22;10274;49.022;9.338;2022-07-12T09:32:57;27.10;99.90
20231;DHT22;10274;49.022;9.338;2022-07-12T09:35:46;26.90;99.90
20231;DHT22;10274;49.022;9.338;2022-07-12T09:38:33;27.80;99.90
20231;DHT22;10274;49.022;9.338;2022-07-12T09:41:01;27.90;99.90
20231;DHT22;10274;49.022;9.338;2022-07-12T09:43:28;27.70;99.90
20231;DHT22;10274;49.022;9.338;2022-07-12T09:45:55;27.90;99.90
20231;DHT22;10274;49.022;9.338;2022-07-12T09:48:22;28.70;99.90
20231;DHT22;10274;49.022;9.338;2022-07-12T09:50:51;28.70;99.90
20231;DHT22;10274;49.022;9.338;2022-07-12T09:53:22;28.60;99.90
20231;DHT22;10274;49.022;9.338;2022-07-12T09:55:49;29.00;99.90
20231;DHT22;10274;49.022;9.338;2022-07-12T09:58:23;29.00;99.90
20231;DHT22;10274;49.022;9.338;2022-07-12T10:00:51;28.60;99.90
20231;DHT22;10274;49.022;9.338;2022-07-12T10:03:20;27.80;99.90
20231;DHT22;10274;49.022;9.338;2022-07-12T10:05:53;28.10;99.90
20231;DHT22;10274;49.022;9.338;2022-07-12T10:08:21;28.20;99.90
20231;DHT22;10274;49.022;9.338;2022-07-12T10:10:48;28.20;99.90
20231;DHT22;10274;49.022;9.338;2022-07-12T10:13:16;29.20;99.90
20231;DHT22;10274;49.022;9.338;2022-07-12T10:15:45;29.10;99.90
20231;DHT22;10274;49.022;9.338;2022-07-12T10:18:17;29.70;99.90
20231;DHT22;10274;49.022;9.338;2022-07-12T10:20:44;29.30;99.90
20231;DHT22;10274;49.022;9.338;2022-07-12T10:23:33;29.10;99.90
20231;DHT22;10274;49.022;9.338;2022-07-12T10:26:36;28.50;99.90
20231;DHT22;10274;49.022;9.338;2022-07-12T10:29:06;29.30;99.90
20231;DHT22;10274;49.022;9.338;2022-07-12T10:31:34;29.40;99.90
20231;DHT22;10274;49.022;9.338;2022-07-12T10:34:13;29.10;99.90
20231;DHT22;10274;49.022;9.338;2022-07-12T10:37:08;28.90;99.90
20231;DHT22;10274;49.022;9.338;2022-07-12T10:39:37;28.80;99.90
20231;DHT22;10274;49.022;9.338;2022-07-12T10:42:14;29.90;99.90
20231;DHT22;10274;49.022;9.338;2022-07-12T10:44:45;30.30;99.90
20231;DHT22;10274;49.022;9.338;2022-07-12T10:47:14;29.60;99.90
20231;DHT22;10274;49.022;9.338;2022-07-12T10:49:50;30.60;99.90
20231;DHT22;10274;49.022;9.338;2022-07-12T10:52:27;30.20;99.90
20231;DHT22;10274;49.022;9.338;2022-07-12T10:55:17;30.30;99.90
20231;DHT22;10274;49.022;9.338;2022-07-12T10:57:46;30.10;99.90
20231;DHT22;10274;49.022;9.338;2022-07-12T11:00:15;29.40;99.90
20231;DHT22;10274;49.022;9.338;2022-07-12T11:02:42;28.50;99.90
20231;DHT22;10274;49.022;9.338;2022-07-12T11:05:09;28.50;99.90
20231;DHT22;10274;49.022;9.338;2022-07-12T11:07:36;28.40;99.90
20231;DHT22;10274;49.022;9.338;2022-07-12T11:10:04;29.50;99.90
20231;DHT22;10274;49.022;9.338;2022-07-12T11:12:33;29.60;99.90
20231;DHT22;10274;49.022;9.338;2022-07-12T11:15:00;30.30;99.90
20231;DHT22;10274;49.022;9.338;2022-07-12T11:17:28;28.80;99.90
20231;DHT22;10274;49.022;9.338;2022-07-12T11:20:10;27.70;99.90
20231;DHT22;10274;49.022;9.338;2022-07-12T11:22:38;27.30;99.90
20231;DHT22;10274;49.022;9.338;2022-07-12T11:25:07;27.80;99.90
20231;DHT22;10274;49.022;9.338;2022-07-12T11:27:36;28.00;99.90
20231;DHT22;10274;49.022;9.338;2022-07-12T11:30:04;27.50;99.90
20231;DHT22;10274;49.022;9.338;2022-07-12T11:32:36;27.10;99.90
20231;DHT22;10274;49.022;9.338;2022-07-12T11:35:03;26.90;99.90
20231;DHT22;10274;49.022;9.338;2022-07-12T11:37:30;27.90;99.90
20231;DHT22;10274;49.022;9.338;2022-07-12T11:39:57;28.80;99.90
20231;DHT22;10274;49.022;9.338;2022-07-12T11:42:24;29.30;99.90
20231;DHT22;10274;49.022;9.338;2022-07-12T11:44:52;30.10;99.90
20231;DHT22;10274;49.022;9.338;2022-07-12T11:47:20;30.30;99.90
20231;DHT22;10274;49.022;9.338;2022-07-12T11:49:48;30.30;99.90
20231;DHT22;10274;49.022;9.338;2022-07-12T11:52:16;30.00;99.90
20231;DHT22;10274;49.022;9.338;2022-07-12T11:54:43;30.30;99.90
20231;DHT22;10274;49.022;9.338;2022-07-12T11:57:11;29.30;99.90
20231;DHT22;10274;49.022;9.338;2022-07-12T11:59:38;29.60;99.90
20231;DHT22;10274;49.022;9.338;2022-07-12T12:02:07;29.60;99.90
20231;DHT22;10274;49.022;9.338;2022-07-12T12:04:45;29.40;99.90
20231;DHT22;10274;49.022;9.338;2022-07-12T12:07:12;29.90;99.90
20231;DHT22;10274;49.022;9.338;2022-07-12T12:10:00;29.70;99.90
20231;DHT22;10274;49.022;9.338;2022-07-12T12:12:27;30.00;99.90
20231;DHT22;10274;49.022;9.338;2022-07-12T12:14:54;29.50;99.90
20231;DHT22;10274;49.022;9.338;2022-07-12T12:17:22;29.60;99.90
20231;DHT22;10274;49.022;9.338;2022-07-12T12:19:49;29.40;99.90
20231;DHT22;10274;49.022;9.338;2022-07-12T12:22:32;29.60;99.90
20231;DHT22;10274;49.022;9.338;2022-07-12T12:24:59;29.50;99.90
20231;DHT22;10274;49.022;9.338;2022-07-12T12:27:26;29.00;99.90
20231;DHT22;10274;49.022;9.338;2022-07-12T12:29:53;29.10;99.90
20231;DHT22;10274;49.022;9.338;2022-07-12T12:32:21;28.90;99.90
20231;DHT22;10274;49.022;9.338;2022-07-12T12:35:07;29.50;99.90
20231;DHT22;10274;49.022;9.338;2022-07-12T12:37:34;30.00;99.90
20231;DHT22;10274;49.022;9.338;2022-07-12T12:40:01;30.00;99.90
20231;DHT22;10274;49.022;9.338;2022-07-12T12:42:28;29.90;99.90
20231;DHT22;10274;49.022;9.338;2022-07-12T12:44:55;30.00;99.90
20231;DHT22;10274;49.022;9.338;2022-07-12T12:47:23;30.00;99.90
20231;DHT22;10274;49.022;9.338;2022-07-12T12:50:00;29.90;99.90
20231;DHT22;10274;49.022;9.338;2022-07-12T12:52:28;29.20;99.90
20231;DHT22;10274;49.022;9.338;2022-07-12T12:54:56;29.40;99.90
20231;DHT22;10274;49.022;9.338;2022-07-12T12:57:24;28.90;99.90
20231;DHT22;10274;49.022;9.338;2022-07-12T12:59:52;28.70;99.90
20231;DHT22;10274;49.022;9.338;2022-07-12T13:02:19;29.00;99.90
20231;DHT22;10274;49.022;9.338;2022-07-12T13:04:50;29.00;99.90
20231;DHT22;10274;49.022;9.338;2022-07-12T13:07:18;29.20;99.90
20231;DHT22;10274;49.022;9.338;2022-07-12T13:09:45;29.20;99.90
20231;DHT22;10274;49.022;9.338;2022-07-12T13:12:12;29.10;99.90
20231;DHT22;10274;49.022;9.338;2022-07-12T13:14:39;29.50;99.90
20231;DHT22;10274;49.022;9.338;2022-07-12T13:17:05;30.10;99.90
20231;DHT22;10274;49.022;9.338;2022-07-12T13:19:32;29.70;99.90
20231;DHT22;10274;49.022;9.338;2022-07-12T13:22:01;29.80;99.90
20231;DHT22;10274;49.022;9.338;2022-07-12T13:24:28;29.60;99.90
20231;DHT22;10274;49.022;9.338;2022-07-12T13:26:55;29.90;99.90
20231;DHT22;10274;49.022;9.338;2022-07-12T13:29:22;30.00;99.90
20231;DHT22;10274;49.022;9.338;2022-07-12T13:31:49;30.20;99.90
20231;DHT22;10274;49.022;9.338;2022-07-12T13:34:18;30.10;99.90
20231;DHT22;10274;49.022;9.338;2022-07-12T13:36:45;29.90;99.90
20231;DHT22;10274;49.022;9.338;2022-07-12T13:39:13;29.50;99.90
20231;DHT22;10274;49.022;9.338;2022-07-12T13:41:57;29.90;99.90
20231;DHT22;10274;49.022;9.338;2022-07-12T13:44:24;28.70;99.90
20231;DHT22;10274;49.022;9.338;2022-07-12T13:46:51;28.70;99.90
20231;DHT22;10274;49.022;9.338;2022-07-12T13:49:17;28.70;99.90
20231;DHT22;10274;49.022;9.338;2022-07-12T13:51:44;28.70;99.90
20231;DHT22;10274;49.022;9.338;2022-07-12T13:54:12;28.70;99.90
20231;DHT22;10274;49.022;9.338;2022-07-12T13:56:39;29.00;99.90
20231;DHT22;10274;49.022;9.338;2022-07-12T13:59:06;29.00;99.90
20231;DHT22;10274;49.022;9.338;2022-07-12T14:01:33;28.80;99.90
20231;DHT22;10274;49.022;9.338;2022-07-12T14:03:59;29.10;99.90
20231;DHT22;10274;49.022;9.338;2022-07-12T14:06:27;28.60;99.90
20231;DHT22;10274;49.022;9.338;2022-07-12T14:08:56;28.50;99.90
20231;DHT22;10274;49.022;9.338;2022-07-12T14:11:24;28.30;99.90
20231;DHT22;10274;49.022;9.338;2022-07-12T14:13:51;28.60;99.90
20231;DHT22;10274;49.022;9.338;2022-07-12T14:16:17;28.70;99.90
20231;DHT22;10274;49.022;9.338;2022-07-12T14:18:44;28.30;99.90
20231;DHT22;10274;49.022;9.338;2022-07-12T14:21:11;28.10;99.90
20231;DHT22;10274;49.022;9.338;2022-07-12T14:23:40;28.40;99.90
20231;DHT22;10274;49.022;9.338;2022-07-12T14:26:07;28.90;99.90
20231;DHT22;10274;49.022;9.338;2022-07-12T14:28:35;29.00;99.90
20231;DHT22;10274;49.022;9.338;2022-07-12T14:31:02;29.10;99.90
20231;DHT22;10274;49.022;9.338;2022-07-12T14:33:30;29.60;99.90
20231;DHT22;10274;49.022;9.338;2022-07-12T14:35:57;29.30;99.90
20231;DHT22;10274;49.022;9.338;2022-07-12T14:38:23;29.40;99.90
20231;DHT22;10274;49.022;9.338;2022-07-12T14:40:50;28.90;99.90
20231;DHT22;10274;49.022;9.338;2022-07-12T14:43:18;28.90;99.90
20231;DHT22;10274;49.022;9.338;2022-07-12T14:45:47;28.80;99.90
20231;DHT22;10274;49.022;9.338;2022-07-12T14:48:13;28.60;99.90
20231;DHT22;10274;49.022;9.338;2022-07-12T14:50:40;28.80;99.90
20231;DHT22;10274;49.022;9.338;2022-07-12T14:53:06;28.80;99.90
20231;DHT22;10274;49.022;9.338;2022-07-12T14:55:33;28.70;99.90
20231;DHT22;10274;49.022;9.338;2022-07-12T14:58:00;28.90;99.90
20231;DHT22;10274;49.022;9.338;2022-07-12T15:00:27;28.80;99.90
20231;DHT22;10274;49.022;9.338;2022-07-12T15:02:55;29.10;99.90
20231;DHT22;10274;49.022;9.338;2022-07-12T15:05:24;28.70;99.90
20231;DHT22;10274;49.022;9.338;2022-07-12T15:07:51;28.70;99.90
20231;DHT22;10274;49.022;9.338;2022-07-12T15:10:18;28.80;99.90
20231;DHT22;10274;49.022;9.338;2022-07-12T15:12:45;29.10;99.90
20231;DHT22;10274;49.022;9.338;2022-07-12T15:15:12;29.30;99.90
20231;DHT22;10274;49.022;9.338;2022-07-12T15:17:38;29.20;99.90
20231;DHT22;10274;49.022;9.338;2022-07-12T15:20:08;28.40;99.90
20231;DHT22;10274;49.022;9.338;2022-07-12T15:22:34;28.20;99.90
20231;DHT22;10274;49.022;9.338;2022-07-12T15:25:01;28.80;99.90
20231;DHT22;10274;49.022;9.338;2022-07-12T15:27:28;28.70;99.90
20231;DHT22;10274;49.022;9.338;2022-07-12T15:29:55;28.90;99.90
20231;DHT22;10274;49.022;9.338;2022-07-12T15:32:21;29.10;99.90
20231;DHT22;10274;49.022;9.338;2022-07-12T15:34:48;28.90;99.90
20231;DHT22;10274;49.022;9.338;2022-07-12T15:37:16;28.50;99.90
20231;DHT22;10274;49.022;9.338;2022-07-12T15:39:43;28.10;99.90